sensor_id;sensor_type;location;lat;lon;timestamp;P1;durP1;ratioP1;P2;durP2;ratioP2
4309;SDS011;2168;53.576;9.980;2023-02-08T00:00:49;17.43;;;10.70;;
4309;SDS011;2168;53.576;9.980;2023-02-08T00:03:14;17.80;;;10.87;;
4309;SDS011;2168;53.576;9.980;2023-02-08T00:05:39;17.23;;;10.00;;
4309;SDS011;2168;53.576;9.980;2023-02-08T00:08:04;15.83;;;10.90;;
4309;SDS011;2168;53.576;9.980;2023-02-08T00:10:30;15.53;;;10.70;;
4309;SDS011;2168;53.576;9.980;2023-02-08T00:12:55;16.33;;;9.63;;
4309;SDS011;2168;53.576;9.980;2023-02-08T00:15:20;19.53;;;11.50;;
4309;SDS011;2168;53.576;9.980;2023-02-08T00:17:46;23.83;;;14.03;;
4309;SDS011;2168;53.576;9.980;2023-02-08T00:20:11;18.93;;;10.97;;
4309;SDS011;2168;53.576;9.980;2023-02-08T00:22:36;17.90;;;10.63;;
4309;SDS011;2168;53.576;9.980;2023-02-08T00:25:03;17.30;;;11.60;;
4309;SDS011;2168;53.576;9.980;2023-02-08T00:27:29;17.47;;;10.47;;
4309;SDS011;2168;53.576;9.980;2023-02-08T00:29:54;16.70;;;11.60;;
4309;SDS011;2168;53.576;9.980;2023-02-08T00:32:19;17.00;;;10.57;;
4309;SDS011;2168;53.576;9.980;2023-02-08T00:34:44;17.40;;;10.20;;
4309;SDS011;2168;53.576;9.980;2023-02-08T00:37:09;16.67;;;11.33;;
4309;SDS011;2168;53.576;9.980;2023-02-08T00:39:35;24.07;;;11.00;;
4309;SDS011;2168;53.576;9.980;2023-02-08T00:42:00;14.93;;;10.47;;
4309;SDS011;2168;53.576;9.980;2023-02-08T00:44:25;17.03;;;9.93;;
4309;SDS011;2168;53.576;9.980;2023-02-08T00:46:50;16.63;;;11.00;;
4309;SDS011;2168;53.576;9.980;2023-02-08T00:49:16;17.37;;;10.83;;
4309;SDS011;2168;53.576;9.980;2023-02-08T00:51:41;15.97;;;10.07;;
4309;SDS011;2168;53.576;9.980;2023-02-08T00:54:10;14.90;;;10.33;;
4309;SDS011;2168;53.576;9.980;2023-02-08T00:56:35;17.20;;;11.27;;
4309;SDS011;2168;53.576;9.980;2023-02-08T00:59:00;19.13;;;11.23;;
4309;SDS011;2168;53.576;9.980;2023-02-08T01:01:26;19.97;;;11.53;;
4309;SDS011;2168;53.576;9.980;2023-02-08T01:03:51;19.07;;;11.07;;
4309;SDS011;2168;53.576;9.980;2023-02-08T01:06:16;21.50;;;11.57;;
4309;SDS011;2168;53.576;9.980;2023-02-08T01:08:42;14.40;;;10.20;;
4309;SDS011;2168;53.576;9.980;2023-02-08T01:13:33;16.93;;;9.93;;
4309;SDS011;2168;53.576;9.980;2023-02-08T01:16:08;18.67;;;11.30;;
4309;SDS011;2168;53.576;9.980;2023-02-08T01:18:34;21.20;;;10.90;;
4309;SDS011;2168;53.576;9.980;2023-02-08T01:21:18;24.50;;;11.03;;
4309;SDS011;2168;53.576;9.980;2023-02-08T01:23:44;16.33;;;10.80;;
4309;SDS011;2168;53.576;9.980;2023-02-08T01:26:10;18.47;;;10.90;;
4309;SDS011;2168;53.576;9.980;2023-02-08T01:28:36;17.33;;;10.40;;
4309;SDS011;2168;53.576;9.980;2023-02-08T01:31:08;19.90;;;12.83;;
4309;SDS011;2168;53.576;9.980;2023-02-08T01:33:34;16.03;;;10.43;;
4309;SDS011;2168;53.576;9.980;2023-02-08T01:35:59;29.10;;;11.30;;
4309;SDS011;2168;53.576;9.980;2023-02-08T01:38:25;22.30;;;11.93;;
4309;SDS011;2168;53.576;9.980;2023-02-08T01:40:50;20.60;;;11.97;;
4309;SDS011;2168;53.576;9.980;2023-02-08T01:43:32;22.93;;;11.43;;
4309;SDS011;2168;53.576;9.980;2023-02-08T01:45:58;20.17;;;12.07;;
4309;SDS011;2168;53.576;9.980;2023-02-08T01:48:34;17.40;;;11.70;;
4309;SDS011;2168;53.576;9.980;2023-02-08T01:51:02;20.20;;;11.30;;
4309;SDS011;2168;53.576;9.980;2023-02-08T01:53:29;18.67;;;11.43;;
4309;SDS011;2168;53.576;9.980;2023-02-08T01:55:56;17.83;;;11.37;;
4309;SDS011;2168;53.576;9.980;2023-02-08T01:58:22;17.00;;;11.60;;
4309;SDS011;2168;53.576;9.980;2023-02-08T02:00:49;30.20;;;11.30;;
4309;SDS011;2168;53.576;9.980;2023-02-08T02:03:14;28.90;;;13.57;;
4309;SDS011;2168;53.576;9.980;2023-02-08T02:05:40;18.87;;;12.20;;
4309;SDS011;2168;53.576;9.980;2023-02-08T02:08:06;18.60;;;11.90;;
4309;SDS011;2168;53.576;9.980;2023-02-08T02:10:32;19.23;;;11.70;;
4309;SDS011;2168;53.576;9.980;2023-02-08T02:13:17;16.60;;;11.20;;
4309;SDS011;2168;53.576;9.980;2023-02-08T02:15:44;17.30;;;11.00;;
4309;SDS011;2168;53.576;9.980;2023-02-08T02:18:09;18.17;;;11.40;;
4309;SDS011;2168;53.576;9.980;2023-02-08T02:23:09;18.80;;;11.87;;
4309;SDS011;2168;53.576;9.980;2023-02-08T02:38:19;21.37;;;11.27;;
4309;SDS011;2168;53.576;9.980;2023-02-08T02:51:22;16.73;;;11.00;;
4309;SDS011;2168;53.576;9.980;2023-02-08T02:53:51;14.27;;;10.13;;
4309;SDS011;2168;53.576;9.980;2023-02-08T02:56:20;18.37;;;11.10;;
4309;SDS011;2168;53.576;9.980;2023-02-08T02:58:46;18.70;;;11.50;;
4309;SDS011;2168;53.576;9.980;2023-02-08T03:01:11;22.73;;;11.80;;
4309;SDS011;2168;53.576;9.980;2023-02-08T03:03:37;18.77;;;12.23;;
4309;SDS011;2168;53.576;9.980;2023-02-08T03:06:04;20.67;;;11.77;;
4309;SDS011;2168;53.576;9.980;2023-02-08T03:11:02;18.80;;;11.73;;
4309;SDS011;2168;53.576;9.980;2023-02-08T03:13:41;20.67;;;11.50;;
4309;SDS011;2168;53.576;9.980;2023-02-08T03:16:19;17.93;;;11.20;;
4309;SDS011;2168;53.576;9.980;2023-02-08T03:21:34;21.13;;;12.07;;
4309;SDS011;2168;53.576;9.980;2023-02-08T03:24:07;21.43;;;12.20;;
4309;SDS011;2168;53.576;9.980;2023-02-08T03:26:34;23.90;;;13.17;;
4309;SDS011;2168;53.576;9.980;2023-02-08T03:31:44;22.30;;;11.90;;
4309;SDS011;2168;53.576;9.980;2023-02-08T03:34:32;21.87;;;12.47;;
4309;SDS011;2168;53.576;9.980;2023-02-08T03:37:03;22.40;;;12.67;;
4309;SDS011;2168;53.576;9.980;2023-02-08T03:39:30;21.50;;;12.07;;
4309;SDS011;2168;53.576;9.980;2023-02-08T03:41:57;24.33;;;12.53;;
4309;SDS011;2168;53.576;9.980;2023-02-08T03:44:35;23.60;;;13.60;;
4309;SDS011;2168;53.576;9.980;2023-02-08T03:47:03;21.90;;;13.20;;
4309;SDS011;2168;53.576;9.980;2023-02-08T03:49:32;23.23;;;12.50;;
4309;SDS011;2168;53.576;9.980;2023-02-08T03:51:59;18.87;;;11.57;;
4309;SDS011;2168;53.576;9.980;2023-02-08T03:54:25;26.27;;;12.90;;
4309;SDS011;2168;53.576;9.980;2023-02-08T03:59:37;20.40;;;11.97;;
4309;SDS011;2168;53.576;9.980;2023-02-08T04:02:04;26.07;;;13.20;;
4309;SDS011;2168;53.576;9.980;2023-02-08T04:04:34;23.77;;;12.10;;
4309;SDS011;2168;53.576;9.980;2023-02-08T04:07:00;23.23;;;12.70;;
4309;SDS011;2168;53.576;9.980;2023-02-08T04:09:26;22.97;;;13.20;;
4309;SDS011;2168;53.576;9.980;2023-02-08T04:11:51;21.70;;;13.10;;
4309;SDS011;2168;53.576;9.980;2023-02-08T04:14:16;23.87;;;13.07;;
4309;SDS011;2168;53.576;9.980;2023-02-08T04:16:41;20.30;;;12.23;;
4309;SDS011;2168;53.576;9.980;2023-02-08T04:19:06;22.80;;;14.33;;
4309;SDS011;2168;53.576;9.980;2023-02-08T04:21:32;22.57;;;12.50;;
4309;SDS011;2168;53.576;9.980;2023-02-08T04:23:57;25.03;;;13.03;;
4309;SDS011;2168;53.576;9.980;2023-02-08T04:26:22;24.43;;;13.27;;
4309;SDS011;2168;53.576;9.980;2023-02-08T04:28:47;23.40;;;12.77;;
4309;SDS011;2168;53.576;9.980;2023-02-08T04:31:12;20.83;;;13.40;;
4309;SDS011;2168;53.576;9.980;2023-02-08T04:33:38;22.63;;;13.13;;
4309;SDS011;2168;53.576;9.980;2023-02-08T04:36:03;26.80;;;13.63;;
4309;SDS011;2168;53.576;9.980;2023-02-08T04:38:28;26.13;;;13.87;;
4309;SDS011;2168;53.576;9.980;2023-02-08T04:40:53;22.87;;;13.10;;
4309;SDS011;2168;53.576;9.980;2023-02-08T04:43:19;25.00;;;13.20;;
4309;SDS011;2168;53.576;9.980;2023-02-08T04:45:44;22.97;;;14.13;;
4309;SDS011;2168;53.576;9.980;2023-02-08T04:48:09;26.80;;;13.40;;
4309;SDS011;2168;53.576;9.980;2023-02-08T04:50:34;21.93;;;13.40;;
4309;SDS011;2168;53.576;9.980;2023-02-08T04:53:00;24.77;;;13.57;;
4309;SDS011;2168;53.576;9.980;2023-02-08T04:55:25;23.43;;;13.90;;
4309;SDS011;2168;53.576;9.980;2023-02-08T04:57:50;24.20;;;13.50;;
4309;SDS011;2168;53.576;9.980;2023-02-08T05:00:15;24.33;;;14.57;;
4309;SDS011;2168;53.576;9.980;2023-02-08T05:02:41;28.50;;;14.53;;
4309;SDS011;2168;53.576;9.980;2023-02-08T05:05:06;23.10;;;13.37;;
4309;SDS011;2168;53.576;9.980;2023-02-08T05:10:03;28.70;;;14.77;;
4309;SDS011;2168;53.576;9.980;2023-02-08T05:12:28;23.63;;;13.87;;
4309;SDS011;2168;53.576;9.980;2023-02-08T05:14:53;28.20;;;14.00;;
4309;SDS011;2168;53.576;9.980;2023-02-08T05:17:19;23.23;;;12.93;;
4309;SDS011;2168;53.576;9.980;2023-02-08T05:19:44;20.20;;;13.10;;
4309;SDS011;2168;53.576;9.980;2023-02-08T05:22:09;26.33;;;14.60;;
4309;SDS011;2168;53.576;9.980;2023-02-08T05:24:34;23.80;;;13.87;;
4309;SDS011;2168;53.576;9.980;2023-02-08T05:26:59;24.50;;;15.10;;
4309;SDS011;2168;53.576;9.980;2023-02-08T05:29:25;26.43;;;14.27;;
4309;SDS011;2168;53.576;9.980;2023-02-08T05:31:50;28.07;;;13.33;;
4309;SDS011;2168;53.576;9.980;2023-02-08T05:34:15;27.30;;;15.00;;
4309;SDS011;2168;53.576;9.980;2023-02-08T05:36:40;30.93;;;15.37;;
4309;SDS011;2168;53.576;9.980;2023-02-08T05:39:05;26.07;;;14.10;;
4309;SDS011;2168;53.576;9.980;2023-02-08T05:41:31;29.40;;;15.70;;
4309;SDS011;2168;53.576;9.980;2023-02-08T05:43:56;23.03;;;13.70;;
4309;SDS011;2168;53.576;9.980;2023-02-08T05:46:21;29.33;;;15.77;;
4309;SDS011;2168;53.576;9.980;2023-02-08T05:48:47;23.63;;;14.23;;
4309;SDS011;2168;53.576;9.980;2023-02-08T05:51:12;26.37;;;14.00;;
4309;SDS011;2168;53.576;9.980;2023-02-08T05:53:38;27.50;;;15.03;;
4309;SDS011;2168;53.576;9.980;2023-02-08T05:56:03;28.93;;;14.73;;
4309;SDS011;2168;53.576;9.980;2023-02-08T05:58:28;31.60;;;15.40;;
4309;SDS011;2168;53.576;9.980;2023-02-08T06:00:54;24.80;;;14.97;;
4309;SDS011;2168;53.576;9.980;2023-02-08T06:03:19;27.87;;;15.57;;
4309;SDS011;2168;53.576;9.980;2023-02-08T06:05:44;30.83;;;15.57;;
4309;SDS011;2168;53.576;9.980;2023-02-08T06:08:10;29.37;;;15.70;;
4309;SDS011;2168;53.576;9.980;2023-02-08T06:10:35;28.20;;;15.37;;
4309;SDS011;2168;53.576;9.980;2023-02-08T06:13:01;27.33;;;16.63;;
4309;SDS011;2168;53.576;9.980;2023-02-08T06:15:26;31.30;;;14.70;;
4309;SDS011;2168;53.576;9.980;2023-02-08T06:17:51;32.43;;;16.10;;
4309;SDS011;2168;53.576;9.980;2023-02-08T06:20:16;28.87;;;15.00;;
4309;SDS011;2168;53.576;9.980;2023-02-08T06:22:42;27.10;;;15.03;;
4309;SDS011;2168;53.576;9.980;2023-02-08T06:25:07;28.10;;;15.33;;
4309;SDS011;2168;53.576;9.980;2023-02-08T06:27:32;27.90;;;15.37;;
4309;SDS011;2168;53.576;9.980;2023-02-08T06:29:57;36.13;;;17.10;;
4309;SDS011;2168;53.576;9.980;2023-02-08T06:32:23;34.27;;;16.93;;
4309;SDS011;2168;53.576;9.980;2023-02-08T06:34:48;30.30;;;15.93;;
4309;SDS011;2168;53.576;9.980;2023-02-08T06:37:15;27.90;;;15.70;;
4309;SDS011;2168;53.576;9.980;2023-02-08T06:39:41;34.20;;;17.37;;
4309;SDS011;2168;53.576;9.980;2023-02-08T06:42:06;29.20;;;15.90;;
4309;SDS011;2168;53.576;9.980;2023-02-08T06:44:31;33.67;;;17.10;;
4309;SDS011;2168;53.576;9.980;2023-02-08T06:46:56;30.40;;;15.03;;
4309;SDS011;2168;53.576;9.980;2023-02-08T06:49:21;33.53;;;16.27;;
4309;SDS011;2168;53.576;9.980;2023-02-08T06:51:47;31.03;;;16.10;;
4309;SDS011;2168;53.576;9.980;2023-02-08T06:54:12;29.93;;;16.20;;
4309;SDS011;2168;53.576;9.980;2023-02-08T06:56:39;29.03;;;16.30;;
4309;SDS011;2168;53.576;9.980;2023-02-08T06:59:04;33.50;;;16.53;;
4309;SDS011;2168;53.576;9.980;2023-02-08T07:01:29;33.33;;;16.87;;
4309;SDS011;2168;53.576;9.980;2023-02-08T07:03:55;30.23;;;15.53;;
4309;SDS011;2168;53.576;9.980;2023-02-08T07:06:20;28.80;;;16.30;;
4309;SDS011;2168;53.576;9.980;2023-02-08T07:08:45;30.47;;;15.70;;
4309;SDS011;2168;53.576;9.980;2023-02-08T07:11:12;28.00;;;15.30;;
4309;SDS011;2168;53.576;9.980;2023-02-08T07:13:38;33.93;;;16.83;;
4309;SDS011;2168;53.576;9.980;2023-02-08T07:16:04;33.00;;;16.13;;
4309;SDS011;2168;53.576;9.980;2023-02-08T07:18:29;36.37;;;16.87;;
4309;SDS011;2168;53.576;9.980;2023-02-08T07:20:54;34.07;;;16.67;;
4309;SDS011;2168;53.576;9.980;2023-02-08T07:23:20;33.50;;;15.03;;
4309;SDS011;2168;53.576;9.980;2023-02-08T07:25:45;27.13;;;16.20;;
4309;SDS011;2168;53.576;9.980;2023-02-08T07:28:19;32.17;;;16.90;;
4309;SDS011;2168;53.576;9.980;2023-02-08T07:30:45;32.60;;;16.63;;
4309;SDS011;2168;53.576;9.980;2023-02-08T07:33:10;33.17;;;15.80;;
4309;SDS011;2168;53.576;9.980;2023-02-08T07:35:36;29.97;;;15.80;;
4309;SDS011;2168;53.576;9.980;2023-02-08T07:38:01;35.03;;;17.57;;
4309;SDS011;2168;53.576;9.980;2023-02-08T07:40:26;32.80;;;16.63;;
4309;SDS011;2168;53.576;9.980;2023-02-08T07:42:51;30.80;;;16.57;;
4309;SDS011;2168;53.576;9.980;2023-02-08T07:45:16;34.67;;;17.20;;
4309;SDS011;2168;53.576;9.980;2023-02-08T07:47:42;36.13;;;16.77;;
4309;SDS011;2168;53.576;9.980;2023-02-08T07:50:07;31.07;;;15.83;;
4309;SDS011;2168;53.576;9.980;2023-02-08T07:52:32;33.10;;;17.93;;
4309;SDS011;2168;53.576;9.980;2023-02-08T07:54:57;33.43;;;17.47;;
4309;SDS011;2168;53.576;9.980;2023-02-08T07:57:23;30.47;;;16.10;;
4309;SDS011;2168;53.576;9.980;2023-02-08T07:59:48;37.37;;;17.10;;
4309;SDS011;2168;53.576;9.980;2023-02-08T08:02:13;47.30;;;18.63;;
4309;SDS011;2168;53.576;9.980;2023-02-08T08:04:39;35.57;;;16.90;;
4309;SDS011;2168;53.576;9.980;2023-02-08T08:07:04;35.57;;;17.37;;
4309;SDS011;2168;53.576;9.980;2023-02-08T08:09:29;31.13;;;16.60;;
4309;SDS011;2168;53.576;9.980;2023-02-08T08:11:54;35.73;;;17.93;;
4309;SDS011;2168;53.576;9.980;2023-02-08T08:14:19;36.93;;;17.17;;
4309;SDS011;2168;53.576;9.980;2023-02-08T08:16:45;32.20;;;16.83;;
4309;SDS011;2168;53.576;9.980;2023-02-08T08:19:10;31.57;;;17.10;;
4309;SDS011;2168;53.576;9.980;2023-02-08T08:21:36;32.10;;;16.90;;
4309;SDS011;2168;53.576;9.980;2023-02-08T08:24:02;32.80;;;17.57;;
4309;SDS011;2168;53.576;9.980;2023-02-08T08:26:27;35.97;;;17.27;;
4309;SDS011;2168;53.576;9.980;2023-02-08T08:28:53;29.83;;;16.90;;
4309;SDS011;2168;53.576;9.980;2023-02-08T08:31:19;35.07;;;17.60;;
4309;SDS011;2168;53.576;9.980;2023-02-08T08:33:44;31.73;;;16.93;;
4309;SDS011;2168;53.576;9.980;2023-02-08T08:36:10;33.40;;;17.27;;
4309;SDS011;2168;53.576;9.980;2023-02-08T08:38:35;32.97;;;16.73;;
4309;SDS011;2168;53.576;9.980;2023-02-08T08:41:11;31.90;;;16.30;;
4309;SDS011;2168;53.576;9.980;2023-02-08T08:43:38;32.37;;;16.13;;
4309;SDS011;2168;53.576;9.980;2023-02-08T08:46:04;34.67;;;17.33;;
4309;SDS011;2168;53.576;9.980;2023-02-08T08:48:30;34.50;;;17.00;;
4309;SDS011;2168;53.576;9.980;2023-02-08T08:50:55;36.50;;;17.60;;
4309;SDS011;2168;53.576;9.980;2023-02-08T08:53:20;33.00;;;17.43;;
4309;SDS011;2168;53.576;9.980;2023-02-08T08:55:46;31.53;;;17.67;;
4309;SDS011;2168;53.576;9.980;2023-02-08T08:58:11;29.80;;;16.67;;
4309;SDS011;2168;53.576;9.980;2023-02-08T09:00:36;34.57;;;17.03;;
4309;SDS011;2168;53.576;9.980;2023-02-08T09:03:02;30.13;;;16.47;;
4309;SDS011;2168;53.576;9.980;2023-02-08T09:05:27;34.20;;;17.47;;
4309;SDS011;2168;53.576;9.980;2023-02-08T09:07:52;33.40;;;17.30;;
4309;SDS011;2168;53.576;9.980;2023-02-08T09:10:17;31.80;;;16.87;;
4309;SDS011;2168;53.576;9.980;2023-02-08T09:12:43;33.30;;;17.43;;
4309;SDS011;2168;53.576;9.980;2023-02-08T09:15:08;30.50;;;17.53;;
4309;SDS011;2168;53.576;9.980;2023-02-08T09:17:34;30.60;;;17.83;;
4309;SDS011;2168;53.576;9.980;2023-02-08T09:19:59;30.83;;;16.50;;
4309;SDS011;2168;53.576;9.980;2023-02-08T09:22:24;29.40;;;15.90;;
4309;SDS011;2168;53.576;9.980;2023-02-08T09:24:51;33.23;;;17.43;;
4309;SDS011;2168;53.576;9.980;2023-02-08T09:27:16;36.70;;;17.93;;
4309;SDS011;2168;53.576;9.980;2023-02-08T09:29:42;30.50;;;17.30;;
4309;SDS011;2168;53.576;9.980;2023-02-08T09:32:08;32.37;;;17.07;;
4309;SDS011;2168;53.576;9.980;2023-02-08T09:34:33;34.63;;;17.27;;
4309;SDS011;2168;53.576;9.980;2023-02-08T09:36:58;34.37;;;17.63;;
4309;SDS011;2168;53.576;9.980;2023-02-08T09:39:24;28.40;;;16.50;;
4309;SDS011;2168;53.576;9.980;2023-02-08T09:42:02;32.63;;;18.07;;
4309;SDS011;2168;53.576;9.980;2023-02-08T09:44:35;39.93;;;17.13;;
4309;SDS011;2168;53.576;9.980;2023-02-08T09:47:08;34.67;;;17.33;;
4309;SDS011;2168;53.576;9.980;2023-02-08T09:49:38;30.20;;;17.37;;
4309;SDS011;2168;53.576;9.980;2023-02-08T09:52:09;30.33;;;16.57;;
4309;SDS011;2168;53.576;9.980;2023-02-08T09:54:37;34.90;;;18.40;;
4309;SDS011;2168;53.576;9.980;2023-02-08T09:57:04;29.53;;;17.13;;
4309;SDS011;2168;53.576;9.980;2023-02-08T09:59:31;35.30;;;17.53;;
4309;SDS011;2168;53.576;9.980;2023-02-08T10:02:01;31.80;;;17.07;;
4309;SDS011;2168;53.576;9.980;2023-02-08T10:07:12;33.97;;;17.37;;
4309;SDS011;2168;53.576;9.980;2023-02-08T10:09:38;32.30;;;17.37;;
4309;SDS011;2168;53.576;9.980;2023-02-08T10:20:02;34.20;;;18.13;;
4309;SDS011;2168;53.576;9.980;2023-02-08T10:35:45;33.13;;;17.37;;
4309;SDS011;2168;53.576;9.980;2023-02-08T10:40:42;37.77;;;17.90;;
4309;SDS011;2168;53.576;9.980;2023-02-08T10:45:40;33.07;;;17.23;;
4309;SDS011;2168;53.576;9.980;2023-02-08T10:48:18;34.00;;;18.43;;
4309;SDS011;2168;53.576;9.980;2023-02-08T10:50:44;33.13;;;17.60;;
4309;SDS011;2168;53.576;9.980;2023-02-08T10:53:15;33.53;;;18.13;;
4309;SDS011;2168;53.576;9.980;2023-02-08T10:55:45;29.93;;;16.60;;
4309;SDS011;2168;53.576;9.980;2023-02-08T10:58:12;38.50;;;17.10;;
4309;SDS011;2168;53.576;9.980;2023-02-08T11:00:39;33.70;;;17.00;;
4309;SDS011;2168;53.576;9.980;2023-02-08T11:03:21;41.17;;;17.27;;
4309;SDS011;2168;53.576;9.980;2023-02-08T11:05:46;32.77;;;16.30;;
4309;SDS011;2168;53.576;9.980;2023-02-08T11:08:16;29.80;;;16.77;;
4309;SDS011;2168;53.576;9.980;2023-02-08T11:11:05;34.07;;;18.07;;
4309;SDS011;2168;53.576;9.980;2023-02-08T11:15:59;31.20;;;17.27;;
4309;SDS011;2168;53.576;9.980;2023-02-08T11:18:58;35.83;;;17.20;;
4309;SDS011;2168;53.576;9.980;2023-02-08T11:23:53;41.93;;;16.77;;
4309;SDS011;2168;53.576;9.980;2023-02-08T11:26:32;32.70;;;17.40;;
4309;SDS011;2168;53.576;9.980;2023-02-08T11:29:00;30.37;;;16.87;;
4309;SDS011;2168;53.576;9.980;2023-02-08T11:31:25;34.30;;;17.03;;
4309;SDS011;2168;53.576;9.980;2023-02-08T11:36:22;31.43;;;16.17;;
4309;SDS011;2168;53.576;9.980;2023-02-08T11:38:47;28.20;;;16.90;;
4309;SDS011;2168;53.576;9.980;2023-02-08T11:41:14;30.27;;;15.77;;
4309;SDS011;2168;53.576;9.980;2023-02-08T11:43:39;31.37;;;17.53;;
4309;SDS011;2168;53.576;9.980;2023-02-08T11:46:05;33.60;;;17.70;;
4309;SDS011;2168;53.576;9.980;2023-02-08T11:48:41;32.67;;;17.23;;
4309;SDS011;2168;53.576;9.980;2023-02-08T11:51:06;33.27;;;17.47;;
4309;SDS011;2168;53.576;9.980;2023-02-08T11:53:33;32.33;;;17.10;;
4309;SDS011;2168;53.576;9.980;2023-02-08T11:56:14;33.23;;;17.70;;
4309;SDS011;2168;53.576;9.980;2023-02-08T11:58:40;29.57;;;16.50;;
4309;SDS011;2168;53.576;9.980;2023-02-08T12:01:19;34.13;;;16.90;;
4309;SDS011;2168;53.576;9.980;2023-02-08T12:03:45;34.30;;;17.27;;
4309;SDS011;2168;53.576;9.980;2023-02-08T12:18:50;31.13;;;15.70;;
4309;SDS011;2168;53.576;9.980;2023-02-08T12:21:20;26.90;;;14.33;;
4309;SDS011;2168;53.576;9.980;2023-02-08T12:23:52;30.23;;;16.20;;
4309;SDS011;2168;53.576;9.980;2023-02-08T12:26:26;34.00;;;15.83;;
4309;SDS011;2168;53.576;9.980;2023-02-08T12:34:05;28.53;;;14.17;;
4309;SDS011;2168;53.576;9.980;2023-02-08T12:39:38;28.60;;;14.43;;
4309;SDS011;2168;53.576;9.980;2023-02-08T12:42:59;29.80;;;14.47;;
4309;SDS011;2168;53.576;9.980;2023-02-08T12:45:38;33.40;;;15.47;;
4309;SDS011;2168;53.576;9.980;2023-02-08T12:48:20;29.43;;;16.00;;
4309;SDS011;2168;53.576;9.980;2023-02-08T12:53:21;34.70;;;16.23;;
4309;SDS011;2168;53.576;9.980;2023-02-08T12:55:50;33.67;;;16.27;;
4309;SDS011;2168;53.576;9.980;2023-02-08T13:00:44;28.73;;;16.80;;
4309;SDS011;2168;53.576;9.980;2023-02-08T13:03:13;27.70;;;16.07;;
4309;SDS011;2168;53.576;9.980;2023-02-08T13:05:44;27.83;;;15.87;;
4309;SDS011;2168;53.576;9.980;2023-02-08T13:10:36;27.15;;;15.98;;
4309;SDS011;2168;53.576;9.980;2023-02-08T13:13:07;28.30;;;15.83;;
4309;SDS011;2168;53.576;9.980;2023-02-08T13:15:37;40.70;;;16.07;;
4309;SDS011;2168;53.576;9.980;2023-02-08T13:18:09;32.37;;;15.87;;
4309;SDS011;2168;53.576;9.980;2023-02-08T13:23:37;27.40;;;15.63;;
4309;SDS011;2168;53.576;9.980;2023-02-08T13:26:07;23.53;;;15.40;;
4309;SDS011;2168;53.576;9.980;2023-02-08T13:28:33;31.00;;;17.37;;
4309;SDS011;2168;53.576;9.980;2023-02-08T13:31:03;27.30;;;15.70;;
4309;SDS011;2168;53.576;9.980;2023-02-08T13:33:39;25.07;;;16.37;;
4309;SDS011;2168;53.576;9.980;2023-02-08T13:36:10;28.97;;;14.47;;
4309;SDS011;2168;53.576;9.980;2023-02-08T13:38:44;22.67;;;14.23;;
4309;SDS011;2168;53.576;9.980;2023-02-08T13:41:15;30.43;;;16.17;;
4309;SDS011;2168;53.576;9.980;2023-02-08T13:43:44;23.07;;;14.23;;
4309;SDS011;2168;53.576;9.980;2023-02-08T13:46:11;23.93;;;15.00;;
4309;SDS011;2168;53.576;9.980;2023-02-08T13:48:56;27.60;;;14.87;;
4309;SDS011;2168;53.576;9.980;2023-02-08T13:56:38;26.13;;;14.70;;
4309;SDS011;2168;53.576;9.980;2023-02-08T14:04:36;22.10;;;13.87;;
4309;SDS011;2168;53.576;9.980;2023-02-08T14:12:11;18.50;;;12.57;;
4309;SDS011;2168;53.576;9.980;2023-02-08T14:14:37;23.27;;;12.80;;
4309;SDS011;2168;53.576;9.980;2023-02-08T14:19:27;24.73;;;12.68;;
4309;SDS011;2168;53.576;9.980;2023-02-08T14:24:27;16.83;;;12.60;;
4309;SDS011;2168;53.576;9.980;2023-02-08T14:29:43;17.37;;;12.07;;
4309;SDS011;2168;53.576;9.980;2023-02-08T14:32:20;18.33;;;11.57;;
4309;SDS011;2168;53.576;9.980;2023-02-08T14:34:46;19.00;;;12.43;;
4309;SDS011;2168;53.576;9.980;2023-02-08T14:39:42;20.57;;;13.13;;
4309;SDS011;2168;53.576;9.980;2023-02-08T14:42:09;21.03;;;12.20;;
4309;SDS011;2168;53.576;9.980;2023-02-08T14:47:03;16.30;;;12.57;;
4309;SDS011;2168;53.576;9.980;2023-02-08T14:49:34;24.07;;;13.40;;
4309;SDS011;2168;53.576;9.980;2023-02-08T14:52:03;19.43;;;13.00;;
4309;SDS011;2168;53.576;9.980;2023-02-08T14:56:59;22.90;;;12.50;;
4309;SDS011;2168;53.576;9.980;2023-02-08T14:59:26;23.10;;;13.40;;
4309;SDS011;2168;53.576;9.980;2023-02-08T15:01:56;24.50;;;13.63;;
4309;SDS011;2168;53.576;9.980;2023-02-08T15:04:23;19.07;;;12.90;;
4309;SDS011;2168;53.576;9.980;2023-02-08T15:07:07;18.53;;;12.63;;
4309;SDS011;2168;53.576;9.980;2023-02-08T15:09:36;20.10;;;13.37;;
4309;SDS011;2168;53.576;9.980;2023-02-08T15:14:32;19.40;;;12.23;;
4309;SDS011;2168;53.576;9.980;2023-02-08T15:16:58;21.33;;;13.13;;
4309;SDS011;2168;53.576;9.980;2023-02-08T15:19:28;25.00;;;12.90;;
4309;SDS011;2168;53.576;9.980;2023-02-08T15:21:54;20.00;;;13.77;;
4309;SDS011;2168;53.576;9.980;2023-02-08T15:24:21;21.60;;;14.70;;
4309;SDS011;2168;53.576;9.980;2023-02-08T15:26:48;24.53;;;14.47;;
4309;SDS011;2168;53.576;9.980;2023-02-08T15:29:17;26.23;;;15.03;;
4309;SDS011;2168;53.576;9.980;2023-02-08T15:31:42;27.10;;;15.47;;
4309;SDS011;2168;53.576;9.980;2023-02-08T15:34:08;24.43;;;15.40;;
4309;SDS011;2168;53.576;9.980;2023-02-08T15:36:35;25.63;;;14.93;;
4309;SDS011;2168;53.576;9.980;2023-02-08T15:39:02;21.50;;;14.27;;
4309;SDS011;2168;53.576;9.980;2023-02-08T15:41:31;26.87;;;14.40;;
4309;SDS011;2168;53.576;9.980;2023-02-08T15:46:27;21.63;;;14.07;;
4309;SDS011;2168;53.576;9.980;2023-02-08T15:48:52;23.27;;;15.60;;
4309;SDS011;2168;53.576;9.980;2023-02-08T15:51:18;23.50;;;14.17;;
4309;SDS011;2168;53.576;9.980;2023-02-08T15:53:47;24.30;;;14.43;;
4309;SDS011;2168;53.576;9.980;2023-02-08T15:56:18;21.13;;;13.37;;
4309;SDS011;2168;53.576;9.980;2023-02-08T15:58:44;20.83;;;13.70;;
4309;SDS011;2168;53.576;9.980;2023-02-08T16:01:16;22.63;;;13.27;;
4309;SDS011;2168;53.576;9.980;2023-02-08T16:03:44;21.07;;;12.50;;
4309;SDS011;2168;53.576;9.980;2023-02-08T16:06:10;21.57;;;13.10;;
4309;SDS011;2168;53.576;9.980;2023-02-08T16:08:36;20.13;;;13.20;;
4309;SDS011;2168;53.576;9.980;2023-02-08T16:11:11;19.97;;;13.43;;
4309;SDS011;2168;53.576;9.980;2023-02-08T16:13:37;20.77;;;12.57;;
4309;SDS011;2168;53.576;9.980;2023-02-08T16:16:15;20.17;;;11.93;;
4309;SDS011;2168;53.576;9.980;2023-02-08T16:18:59;20.57;;;11.93;;
4309;SDS011;2168;53.576;9.980;2023-02-08T16:21:26;21.70;;;11.53;;
4309;SDS011;2168;53.576;9.980;2023-02-08T16:23:53;21.70;;;11.67;;
4309;SDS011;2168;53.576;9.980;2023-02-08T16:26:21;30.63;;;12.30;;
4309;SDS011;2168;53.576;9.980;2023-02-08T16:28:51;23.70;;;13.30;;
4309;SDS011;2168;53.576;9.980;2023-02-08T16:31:18;18.53;;;10.93;;
4309;SDS011;2168;53.576;9.980;2023-02-08T16:33:44;18.13;;;10.23;;
4309;SDS011;2168;53.576;9.980;2023-02-08T16:36:18;19.37;;;11.13;;
4309;SDS011;2168;53.576;9.980;2023-02-08T16:38:45;20.50;;;11.50;;
4309;SDS011;2168;53.576;9.980;2023-02-08T16:41:49;18.13;;;10.67;;
4309;SDS011;2168;53.576;9.980;2023-02-08T16:44:16;20.00;;;10.77;;
4309;SDS011;2168;53.576;9.980;2023-02-08T16:46:46;21.60;;;10.30;;
4309;SDS011;2168;53.576;9.980;2023-02-08T16:49:11;18.60;;;10.07;;
4309;SDS011;2168;53.576;9.980;2023-02-08T16:51:36;17.70;;;10.87;;
4309;SDS011;2168;53.576;9.980;2023-02-08T16:54:09;20.87;;;10.27;;
4309;SDS011;2168;53.576;9.980;2023-02-08T16:56:37;26.57;;;10.63;;
4309;SDS011;2168;53.576;9.980;2023-02-08T16:59:03;15.67;;;10.23;;
4309;SDS011;2168;53.576;9.980;2023-02-08T17:01:28;18.70;;;11.33;;
4309;SDS011;2168;53.576;9.980;2023-02-08T17:03:53;24.43;;;10.87;;
4309;SDS011;2168;53.576;9.980;2023-02-08T17:06:40;20.50;;;10.80;;
4309;SDS011;2168;53.576;9.980;2023-02-08T17:09:05;20.03;;;11.20;;
4309;SDS011;2168;53.576;9.980;2023-02-08T17:11:30;20.27;;;11.07;;
4309;SDS011;2168;53.576;9.980;2023-02-08T17:13:56;19.83;;;12.13;;
4309;SDS011;2168;53.576;9.980;2023-02-08T17:16:23;17.43;;;10.80;;